Time;durP1;ratioP1;P1;durP2;ratioP2;P2;SDS_P1;SDS_P2;PMS_P1;PMS_P2;Temp;Humidity;BMP_temperature;BMP_pressure;BME280_temperature;BME280_humidity;BME280_pressure;Samples;Min_cycle;Max_cycle;Signal;HPM_P1;HPM_P2
2022/08/27 00:01:39;;;;;;;;;;;17.00;99.90;;;;;;6308166;22;19922;-86
2022/08/27 00:04:34;;;;;;;;;;;;;;;;;;;;;
2022/08/27 00:07:14;;;;;;;;;;;16.90;99.90;;;;;;6307762;22;19914;-86
2022/08/27 00:09:39;;;;;;;;;;;16.90;99.90;;;;;;6307806;22;19921;-81
2022/08/27 00:12:07;;;;;;;;;;;16.90;99.90;;;;;;6307559;22;19911;-86
2022/08/27 00:14:34;;;;;;;;;;;16.80;99.90;;;;;;6307943;22;19915;-85
2022/08/27 00:17:00;;;;;;;;;;;16.80;99.90;;;;;;6307854;22;20268;-83
2022/08/27 00:19:34;;;;;;;;;;;16.80;99.90;;;;;;6280426;22;19919;-87
2022/08/27 00:22:10;;;;;;;;;;;16.80;99.90;;;;;;6281200;22;19930;-86
2022/08/27 00:24:51;;;;;;;;;;;16.80;99.90;;;;;;6307867;22;19919;-85
2022/08/27 00:27:25;;;;;;;;;;;16.70;99.90;;;;;;6307000;22;19922;-84
2022/08/27 00:29:58;;;;;;;;;;;16.70;99.90;;;;;;6308236;22;19915;-85
2022/08/27 00:32:37;;;;;;;;;;;16.70;99.90;;;;;;6281800;22;19966;-86
2022/08/27 00:35:32;;;;;;;;;;;;;;;;;;;;;
2022/08/27 00:38:16;;;;;;;;;;;16.60;99.90;;;;;;6308154;22;19946;-85
2022/08/27 00:41:03;;;;;;;;;;;16.60;99.90;;;;;;6307229;22;19922;-84
2022/08/27 00:43:44;;;;;;;;;;;16.60;99.90;;;;;;6280743;22;19915;-86
2022/08/27 00:46:31;;;;;;;;;;;16.50;99.90;;;;;;6308555;22;19963;-84
2022/08/27 00:49:07;;;;;;;;;;;16.50;99.90;;;;;;6205198;22;19910;-84
2022/08/27 00:52:05;;;;;;;;;;;16.40;99.90;;;;;;6306836;22;19915;-88
2022/08/27 00:54:49;;;;;;;;;;;16.30;99.90;;;;;;6307176;22;19973;-85
2022/08/27 00:57:39;;;;;;;;;;;16.30;99.90;;;;;;6307383;22;19919;-83
2022/08/27 01:00:33;;;;;;;;;;;16.20;99.90;;;;;;6306592;22;19915;-87
2022/08/27 01:03:25;;;;;;;;;;;16.20;99.90;;;;;;6307035;22;19948;-85
2022/08/27 01:06:11;;;;;;;;;;;16.10;99.90;;;;;;6304303;22;20334;-86
2022/08/27 01:08:47;;;;;;;;;;;16.10;99.90;;;;;;6281075;22;19915;-83
2022/08/27 01:11:31;;;;;;;;;;;16.00;99.90;;;;;;6307462;22;20326;-86
2022/08/27 01:14:07;;;;;;;;;;;16.00;99.90;;;;;;6303315;22;20048;-82
2022/08/27 01:16:55;;;;;;;;;;;15.90;99.90;;;;;;6307845;22;19915;-83
2022/08/27 01:19:51;;;;;;;;;;;15.90;99.90;;;;;;6307809;22;19922;-86
2022/08/27 01:22:59;;;;;;;;;;;15.90;99.90;;;;;;6281741;22;19914;-86
2022/08/27 01:25:44;;;;;;;;;;;15.80;99.90;;;;;;6306614;22;19998;-85
2022/08/27 01:28:15;;;;;;;;;;;15.70;99.90;;;;;;6307139;22;19934;-86
2022/08/27 01:31:07;;;;;;;;;;;15.70;99.90;;;;;;6307193;22;19918;-87
2022/08/27 01:34:11;;;;;;;;;;;;;;;;;;;;;
2022/08/27 01:36:49;;;;;;;;;;;15.60;99.90;;;;;;6305333;22;19914;-88
2022/08/27 01:39:28;;;;;;;;;;;15.60;99.90;;;;;;6305910;22;19964;-87
2022/08/27 01:42:09;;;;;;;;;;;15.60;99.90;;;;;;6305938;22;19962;-85
2022/08/27 01:44:53;;;;;;;;;;;15.50;99.90;;;;;;6279705;22;19998;-85
2022/08/27 01:47:37;;;;;;;;;;;;;;;;;;;;;
2022/08/27 01:50:24;;;;;;;;;;;15.50;99.90;;;;;;6307329;22;19993;-87
2022/08/27 01:53:00;;;;;;;;;;;15.50;99.90;;;;;;6306180;22;19946;-86
2022/08/27 01:55:33;;;;;;;;;;;15.40;99.90;;;;;;6304603;22;20333;-85
2022/08/27 01:58:02;;;;;;;;;;;15.40;99.90;;;;;;6306296;22;19914;-85
2022/08/27 02:00:33;;;;;;;;;;;15.30;99.90;;;;;;6279457;22;20381;-87
2022/08/27 02:03:13;;;;;;;;;;;15.40;99.90;;;;;;6306888;22;19922;-84
2022/08/27 02:05:47;;;;;;;;;;;15.30;99.90;;;;;;6306318;22;19925;-86
2022/08/27 02:08:34;;;;;;;;;;;15.30;99.90;;;;;;6304900;22;19959;-86
2022/08/27 02:11:30;;;;;;;;;;;;;;;;;;;;;
2022/08/27 02:14:07;;;;;;;;;;;15.30;99.90;;;;;;6304113;22;19921;-85
2022/08/27 02:16:45;;;;;;;;;;;15.20;99.90;;;;;;6296866;22;20239;-87
2022/08/27 02:19:16;;;;;;;;;;;15.20;99.90;;;;;;6278911;22;19915;-86
2022/08/27 02:22:08;;;;;;;;;;;15.20;99.90;;;;;;6307314;22;19923;-87
2022/08/27 02:24:45;;;;;;;;;;;15.20;99.90;;;;;;6278339;22;19922;-86
2022/08/27 02:27:21;;;;;;;;;;;15.10;99.90;;;;;;6305634;22;19919;-88
2022/08/27 02:29:55;;;;;;;;;;;15.10;99.90;;;;;;6305457;22;19915;-85
2022/08/27 02:32:37;;;;;;;;;;;15.10;99.90;;;;;;6305745;22;19989;-86
2022/08/27 02:35:17;;;;;;;;;;;15.10;99.90;;;;;;6306180;22;19950;-85
2022/08/27 02:37:46;;;;;;;;;;;15.10;99.90;;;;;;6306588;22;20253;-83
2022/08/27 02:40:30;;;;;;;;;;;15.10;99.90;;;;;;6279922;22;19989;-83
2022/08/27 02:43:07;;;;;;;;;;;15.10;99.90;;;;;;6277239;22;20318;-85
2022/08/27 02:45:50;;;;;;;;;;;15.10;99.90;;;;;;6305978;22;19922;-86
2022/08/27 02:48:31;;;;;;;;;;;15.10;99.90;;;;;;6304765;22;20245;-86
2022/08/27 02:50:59;;;;;;;;;;;15.10;99.90;;;;;;6307480;22;19984;-84
2022/08/27 02:53:37;;;;;;;;;;;15.10;99.90;;;;;;6306490;22;19923;-86
2022/08/27 02:56:16;;;;;;;;;;;15.10;99.90;;;;;;6306173;22;19997;-86
2022/08/27 02:58:45;;;;;;;;;;;15.20;99.90;;;;;;6278631;22;19914;-84
2022/08/27 03:01:19;;;;;;;;;;;15.20;99.90;;;;;;6306607;22;19937;-85
2022/08/27 03:04:01;;;;;;;;;;;15.20;99.90;;;;;;6306610;22;19976;-86
2022/08/27 03:06:53;;;;;;;;;;;15.20;99.90;;;;;;6306756;22;20004;-87
2022/08/27 03:09:27;;;;;;;;;;;15.20;99.90;;;;;;6278581;22;19922;-87
2022/08/27 03:11:57;;;;;;;;;;;15.30;99.90;;;;;;6306083;22;19915;-88
2022/08/27 03:14:27;;;;;;;;;;;15.30;99.90;;;;;;6278409;22;19919;-86
2022/08/27 03:20:05;;;;;;;;;;;15.30;99.90;;;;;;6278413;22;19972;-84
2022/08/27 03:22:37;;;;;;;;;;;15.40;99.90;;;;;;6306244;22;19918;-86
2022/08/27 03:25:27;;;;;;;;;;;15.40;99.90;;;;;;6305559;22;19998;-85
2022/08/27 03:28:20;;;;;;;;;;;15.40;99.90;;;;;;6304728;22;19921;-86
2022/08/27 03:30:52;;;;;;;;;;;15.40;99.90;;;;;;6279057;22;19923;-84
2022/08/27 03:33:32;;;;;;;;;;;15.40;99.90;;;;;;6305368;22;19919;-85
2022/08/27 03:36:15;;;;;;;;;;;15.40;99.90;;;;;;6278274;22;19950;-85
2022/08/27 03:38:56;;;;;;;;;;;15.40;99.90;;;;;;6305446;22;20254;-84
2022/08/27 03:41:31;;;;;;;;;;;15.50;99.90;;;;;;6306335;22;19915;-86
2022/08/27 03:44:10;;;;;;;;;;;15.50;99.90;;;;;;6306354;22;20237;-84
2022/08/27 03:46:47;;;;;;;;;;;15.50;99.90;;;;;;6278680;22;19914;-83
2022/08/27 03:49:33;;;;;;;;;;;15.50;99.90;;;;;;6228815;22;20340;-86
2022/08/27 03:52:15;;;;;;;;;;;15.50;99.90;;;;;;6307830;22;20292;-85
2022/08/27 03:55:03;;;;;;;;;;;15.50;99.90;;;;;;6307607;22;19994;-86
2022/08/27 03:57:34;;;;;;;;;;;15.50;99.90;;;;;;6307790;22;19926;-85
2022/08/27 04:00:09;;;;;;;;;;;15.50;99.90;;;;;;6279849;22;19914;-81
2022/08/27 04:02:42;;;;;;;;;;;15.40;99.90;;;;;;6307721;22;19930;-85
2022/08/27 04:05:29;;;;;;;;;;;15.30;99.90;;;;;;6307463;22;19915;-84
2022/08/27 04:08:05;;;;;;;;;;;15.30;99.90;;;;;;6280722;22;19914;-86
2022/08/27 04:10:50;;;;;;;;;;;15.20;99.90;;;;;;6305737;22;19919;-85
2022/08/27 04:13:39;;;;;;;;;;;15.20;99.90;;;;;;6307500;22;19942;-86
2022/08/27 04:19:41;;;;;;;;;;;;;;;;;;;;;
2022/08/27 04:22:22;;;;;;;;;;;15.10;99.90;;;;;;6305455;22;19940;-83
2022/08/27 04:25:09;;;;;;;;;;;;;;;;;;;;;
2022/08/27 04:28:03;;;;;;;;;;;15.00;99.90;;;;;;6307561;22;19954;-84
2022/08/27 04:30:40;;;;;;;;;;;15.00;99.90;;;;;;6307719;22;20253;-87
2022/08/27 04:33:17;;;;;;;;;;;15.10;99.90;;;;;;6306484;22;20368;-86
2022/08/27 04:36:09;;;;;;;;;;;15.00;99.90;;;;;;6307826;22;20258;-87
2022/08/27 04:38:52;;;;;;;;;;;15.00;99.90;;;;;;6307233;22;19915;-84
2022/08/27 04:41:27;;;;;;;;;;;15.10;99.90;;;;;;6279789;22;19915;-86
2022/08/27 04:44:07;;;;;;;;;;;15.10;99.90;;;;;;6307200;22;20385;-85
2022/08/27 04:46:53;;;;;;;;;;;15.10;99.90;;;;;;6307056;22;19937;-86
2022/08/27 04:49:22;;;;;;;;;;;15.10;99.90;;;;;;6278947;22;19925;-84
2022/08/27 04:51:54;;;;;;;;;;;15.10;99.90;;;;;;6280180;22;20357;-85
2022/08/27 04:54:28;;;;;;;;;;;15.20;99.90;;;;;;6280056;22;19919;-86
2022/08/27 04:56:59;;;;;;;;;;;15.20;99.90;;;;;;6280054;22;19985;-85
2022/08/27 04:59:59;;;;;;;;;;;15.30;99.90;;;;;;6278961;22;19953;-84
2022/08/27 05:02:46;;;;;;;;;;;;;;;;;;;;;
2022/08/27 05:05:19;;;;;;;;;;;15.40;99.90;;;;;;6308823;22;20249;-87
2022/08/27 05:08:05;;;;;;;;;;;15.50;99.90;;;;;;6308340;22;19922;-85
2022/08/27 05:10:49;;;;;;;;;;;15.50;99.90;;;;;;6306342;22;19950;-84
2022/08/27 05:13:21;;;;;;;;;;;15.60;99.90;;;;;;6226898;22;19927;-87
2022/08/27 05:16:07;;;;;;;;;;;15.60;99.90;;;;;;6307561;22;20001;-86
2022/08/27 05:18:54;;;;;;;;;;;15.70;99.90;;;;;;6307720;22;20021;-85
2022/08/27 05:25:19;;;;;;;;;;;15.80;99.90;;;;;;6307249;22;19965;-86
2022/08/27 05:27:51;;;;;;;;;;;15.90;99.90;;;;;;6306691;22;19940;-86
2022/08/27 05:30:38;;;;;;;;;;;15.90;99.90;;;;;;6307713;22;19915;-86
2022/08/27 05:33:14;;;;;;;;;;;16.00;99.90;;;;;;6306896;22;19926;-88
2022/08/27 05:35:56;;;;;;;;;;;16.00;99.90;;;;;;6282899;22;19922;-86
2022/08/27 05:38:26;;;;;;;;;;;16.10;99.90;;;;;;6306662;22;20021;-84
2022/08/27 05:41:11;;;;;;;;;;;16.20;99.90;;;;;;6307247;22;20372;-88
2022/08/27 05:43:49;;;;;;;;;;;16.30;99.90;;;;;;6306279;22;19915;-86
2022/08/27 05:46:32;;;;;;;;;;;16.40;99.90;;;;;;6305806;22;20171;-86
2022/08/27 05:49:11;;;;;;;;;;;16.50;99.90;;;;;;6307333;22;19915;-86
2022/08/27 05:51:51;;;;;;;;;;;16.50;99.90;;;;;;6306687;22;19961;-82
2022/08/27 05:54:41;;;;;;;;;;;;;;;;;;;;;
2022/08/27 05:57:13;;;;;;;;;;;16.70;99.90;;;;;;6304127;22;19918;-87
2022/08/27 06:02:49;;;;;;;;;;;16.80;99.90;;;;;;6307016;22;19993;-86
2022/08/27 06:05:18;;;;;;;;;;;16.90;99.90;;;;;;6306240;22;19919;-87
2022/08/27 06:08:09;;;;;;;;;;;17.00;99.90;;;;;;6306650;22;20326;-86
2022/08/27 06:10:44;;;;;;;;;;;17.10;99.90;;;;;;6306628;22;20238;-87
2022/08/27 06:13:26;;;;;;;;;;;17.20;99.90;;;;;;6306105;22;19919;-86
2022/08/27 06:16:19;;;;;;;;;;;17.20;99.90;;;;;;6306022;22;19923;-85
2022/08/27 06:19:06;;;;;;;;;;;17.30;99.90;;;;;;6306144;22;19961;-87
2022/08/27 06:21:50;;;;;;;;;;;17.40;99.90;;;;;;6306645;22;20326;-84
2022/08/27 06:24:27;;;;;;;;;;;17.50;99.90;;;;;;6279209;22;19919;-88
2022/08/27 06:26:57;;;;;;;;;;;17.60;99.90;;;;;;6305726;22;19962;-87
2022/08/27 06:29:27;;;;;;;;;;;17.70;99.90;;;;;;6227189;22;20032;-85
2022/08/27 06:32:01;;;;;;;;;;;17.70;99.90;;;;;;6305599;22;20048;-86
2022/08/27 06:34:51;;;;;;;;;;;17.80;99.90;;;;;;6305869;22;19911;-87
2022/08/27 06:37:32;;;;;;;;;;;17.90;99.90;;;;;;6281005;22;19914;-88
2022/08/27 06:40:04;;;;;;;;;;;17.90;99.90;;;;;;6305397;22;19949;-86
2022/08/27 06:42:36;;;;;;;;;;;17.90;99.90;;;;;;6277848;22;19914;-83
2022/08/27 06:45:18;;;;;;;;;;;18.00;99.90;;;;;;6279231;22;19976;-88
2022/08/27 06:47:57;;;;;;;;;;;18.00;99.90;;;;;;6306809;22;19915;-88
2022/08/27 07:00:34;;;;;;;;;;;18.60;99.90;;;;;;6304432;22;19976;-87
2022/08/27 07:03:07;;;;;;;;;;;18.80;99.90;;;;;;6280136;22;19922;-87
2022/08/27 07:05:52;;;;;;;;;;;18.80;99.90;;;;;;6306536;22;19922;-90
2022/08/27 07:08:28;;;;;;;;;;;18.80;99.90;;;;;;6307080;22;20013;-89
2022/08/27 07:11:07;;;;;;;;;;;18.90;99.90;;;;;;6305195;22;19915;-87
2022/08/27 07:13:43;;;;;;;;;;;18.70;99.90;;;;;;6306891;22;19990;-87
2022/08/27 07:16:27;;;;;;;;;;;18.80;99.90;;;;;;6306199;22;20356;-86
2022/08/27 07:19:00;;;;;;;;;;;19.00;99.90;;;;;;6279171;22;19923;-85
2022/08/27 07:21:32;;;;;;;;;;;19.20;99.90;;;;;;6280192;22;19915;-83
2022/08/27 07:24:15;;;;;;;;;;;19.40;99.90;;;;;;6308655;22;19915;-85
2022/08/27 07:27:01;;;;;;;;;;;19.50;99.90;;;;;;6308519;22;19954;-85
2022/08/27 07:29:55;;;;;;;;;;;19.40;99.90;;;;;;6308723;22;19990;-88
2022/08/27 07:32:25;;;;;;;;;;;19.30;99.90;;;;;;6308672;22;19918;-88
2022/08/27 07:35:10;;;;;;;;;;;;;;;;;;;;;
2022/08/27 07:37:39;;;;;;;;;;;19.30;99.90;;;;;;6281201;22;19942;-87
2022/08/27 07:53:53;;;;;;;;;;;19.40;99.90;;;;;;6308585;22;20076;-86
2022/08/27 07:56:30;;;;;;;;;;;19.20;99.90;;;;;;6255524;22;19915;-88
2022/08/27 07:58:58;;;;;;;;;;;19.30;99.90;;;;;;6280457;22;20705;-85
2022/08/27 08:01:27;;;;;;;;;;;19.00;99.90;;;;;;6280481;22;20239;-85
2022/08/27 08:04:08;;;;;;;;;;;19.20;99.90;;;;;;6307471;22;19930;-87
2022/08/27 08:06:37;;;;;;;;;;;19.30;99.90;;;;;;6308510;22;19926;-87
2022/08/27 08:09:04;;;;;;;;;;;19.30;99.90;;;;;;6278570;22;19910;-85
2022/08/27 08:11:46;;;;;;;;;;;;;;;;;;;;;
2022/08/27 08:14:24;;;;;;;;;;;19.30;99.90;;;;;;6306108;22;19934;-87
2022/08/27 08:17:09;;;;;;;;;;;19.50;99.90;;;;;;6255149;22;20284;-84
2022/08/27 08:19:41;;;;;;;;;;;19.50;99.90;;;;;;6255367;22;19915;-83
2022/08/27 08:22:26;;;;;;;;;;;19.50;99.90;;;;;;6281021;22;19918;-84
2022/08/27 08:24:59;;;;;;;;;;;19.70;99.90;;;;;;6307188;22;19918;-85
2022/08/27 08:37:11;;;;;;;;;;;19.30;99.90;;;;;;6293715;22;19915;-84
2022/08/27 09:20:57;;;;;;;;;;;20.70;99.90;;;;;;6275561;22;20314;-85
2022/08/27 09:26:31;;;;;;;;;;;21.00;99.90;;;;;;6285480;22;19922;-83
2022/08/27 09:29:31;;;;;;;;;;;21.20;99.90;;;;;;6305232;22;19915;-84
2022/08/27 09:32:33;;;;;;;;;;;;;;;;;;;;;
2022/08/27 09:35:19;;;;;;;;;;;21.80;99.90;;;;;;6285231;22;19915;-85
2022/08/27 09:37:56;;;;;;;;;;;21.90;99.90;;;;;;6253024;22;20365;-83
2022/08/27 09:40:43;;;;;;;;;;;21.70;99.90;;;;;;6281932;22;20346;-85
2022/08/27 09:43:42;;;;;;;;;;;;;;;;;;;;;
2022/08/27 09:46:34;;;;;;;;;;;21.50;99.90;;;;;;6306909;22;19914;-84
2022/08/27 09:49:40;;;;;;;;;;;21.30;99.90;;;;;;6296323;22;19985;-85
2022/08/27 09:52:43;;;;;;;;;;;21.10;99.90;;;;;;6281781;22;19914;-85
2022/08/27 10:09:05;;;;;;;;;;;;;;;;;;;;;
2022/08/27 12:17:57;;;;;;;;;;;22.70;97.50;;;;;;6282282;22;19925;-92
2022/08/27 12:21:10;;;;;;;;;;;22.60;97.50;;;;;;6161867;23;19920;-91
2022/08/27 12:24:35;;;;;;;;;;;23.10;97.80;;;;;;6165698;23;19923;-91
2022/08/27 12:27:37;;;;;;;;;;;;;;;;;;;;;
2022/08/27 12:30:25;;;;;;;;;;;22.90;96.50;;;;;;6183350;23;19916;-85
2022/08/27 12:32:51;;;;;;;;;;;23.10;97.20;;;;;;6158290;23;19916;-83
2022/08/27 12:35:20;;;;;;;;;;;23.40;96.80;;;;;;6183137;23;19916;-83
2022/08/27 12:37:49;;;;;;;;;;;23.30;97.00;;;;;;6158208;23;19989;-83
2022/08/27 12:40:23;;;;;;;;;;;23.30;97.00;;;;;;6183118;23;19923;-84
2022/08/27 12:42:49;;;;;;;;;;;23.00;97.70;;;;;;6157867;23;19919;-83
2022/08/27 12:45:22;;;;;;;;;;;23.00;97.10;;;;;;6182864;23;20354;-85
2022/08/27 12:48:06;;;;;;;;;;;;;;;;;;;;;
2022/08/27 12:50:52;;;;;;;;;;;23.20;97.60;;;;;;6168893;23;20354;-85
2022/08/27 12:53:49;;;;;;;;;;;23.50;96.90;;;;;;6245851;23;19915;-82
2022/08/27 12:57:12;;;;;;;;;;;23.40;96.20;;;;;;6246097;23;20304;-84
2022/08/27 13:00:03;;;;;;;;;;;23.00;96.50;;;;;;6220012;23;19942;-87
2022/08/27 13:03:46;;;;;;;;;;;;;;;;;;;;;
2022/08/27 13:09:39;;;;;;;;;;;23.20;95.30;;;;;;6094215;23;20299;-85
2022/08/27 13:12:14;;;;;;;;;;;23.60;95.50;;;;;;6118100;23;19917;-85
2022/08/27 13:14:46;;;;;;;;;;;23.70;95.70;;;;;;6103994;23;19925;-84
2022/08/27 13:17:30;;;;;;;;;;;24.00;94.50;;;;;;6153299;23;19927;-85
2022/08/27 13:20:10;;;;;;;;;;;24.10;94.50;;;;;;6103380;23;19967;-85
2022/08/27 13:22:45;;;;;;;;;;;24.20;93.30;;;;;;6104129;23;19948;-86
2022/08/27 13:25:33;;;;;;;;;;;24.30;94.00;;;;;;6153127;23;19917;-85
2022/08/27 13:28:15;;;;;;;;;;;24.00;94.40;;;;;;6130806;23;19916;-85
2022/08/27 13:30:48;;;;;;;;;;;23.70;94.90;;;;;;6128531;23;19916;-85
2022/08/27 13:33:39;;;;;;;;;;;23.50;95.20;;;;;;6153258;23;20347;-85
2022/08/27 13:36:15;;;;;;;;;;;23.40;94.30;;;;;;6117779;23;20309;-85
2022/08/27 13:38:57;;;;;;;;;;;23.40;95.00;;;;;;6244457;23;19943;-85
2022/08/27 13:41:29;;;;;;;;;;;23.70;94.70;;;;;;6219588;23;20231;-85
2022/08/27 13:44:26;;;;;;;;;;;23.90;94.80;;;;;;6237308;23;19999;-86
2022/08/27 13:47:15;;;;;;;;;;;23.90;94.80;;;;;;6194193;23;19919;-85
2022/08/27 14:06:34;;;;;;;;;;;23.00;96.00;;;;;;6245807;23;19941;-85
2022/08/27 14:09:11;;;;;;;;;;;22.70;96.60;;;;;;6217686;23;20425;-87
2022/08/27 14:11:45;;;;;;;;;;;22.30;97.00;;;;;;6245528;23;20327;-85
2022/08/27 14:14:30;;;;;;;;;;;22.30;97.20;;;;;;6221315;23;19916;-85
2022/08/27 14:17:27;;;;;;;;;;;22.30;97.10;;;;;;6218459;23;19920;-85
2022/08/27 14:20:10;;;;;;;;;;;22.20;97.80;;;;;;6243902;22;19941;-85
2022/08/27 14:22:57;;;;;;;;;;;22.10;97.40;;;;;;6249275;22;20287;-86
2022/08/27 14:25:39;;;;;;;;;;;22.30;97.00;;;;;;6276251;22;19922;-85
2022/08/27 14:28:30;;;;;;;;;;;22.20;96.50;;;;;;6276588;22;19942;-84
2022/08/27 14:31:03;;;;;;;;;;;22.20;95.50;;;;;;6224131;22;20245;-85
2022/08/27 14:33:53;;;;;;;;;;;22.20;96.00;;;;;;6275906;22;20338;-85
2022/08/27 14:36:42;;;;;;;;;;;22.00;96.80;;;;;;6276208;22;19915;-85
2022/08/27 14:39:16;;;;;;;;;;;22.10;96.10;;;;;;6248810;22;19957;-85
2022/08/27 14:42:20;;;;;;;;;;;22.00;96.60;;;;;;6275753;22;19915;-86
2022/08/27 14:55:26;;;;;;;;;;;21.40;98.80;;;;;;6275994;22;19910;-85
2022/08/27 14:58:18;;;;;;;;;;;21.30;99.30;;;;;;6197778;22;20285;-85
2022/08/27 15:00:50;;;;;;;;;;;21.30;98.90;;;;;;6248392;22;19915;-84
2022/08/27 15:03:53;;;;;;;;;;;21.40;98.10;;;;;;6275264;22;19946;-86
2022/08/27 15:06:45;;;;;;;;;;;21.40;98.30;;;;;;6275790;22;19969;-85
2022/08/27 15:09:13;;;;;;;;;;;20.90;97.60;;;;;;6249060;22;19926;-85
2022/08/27 15:11:45;;;;;;;;;;;21.20;97.70;;;;;;6276246;22;19915;-85
2022/08/27 15:25:28;;;;;;;;;;;21.30;97.60;;;;;;6271649;22;19922;-85
2022/08/27 15:28:03;;;;;;;;;;;21.50;97.10;;;;;;6244996;23;20332;-85
2022/08/27 15:30:49;;;;;;;;;;;21.40;97.60;;;;;;6217820;23;19926;-85
2022/08/27 15:33:27;;;;;;;;;;;21.10;98.50;;;;;;6193196;23;20665;-85
2022/08/27 15:36:01;;;;;;;;;;;21.10;98.40;;;;;;6218109;23;20341;-85
2022/08/27 15:38:53;;;;;;;;;;;21.30;98.50;;;;;;6123049;23;19964;-85
2022/08/27 15:41:30;;;;;;;;;;;21.00;98.70;;;;;;6098380;23;19917;-85
2022/08/27 15:44:05;;;;;;;;;;;20.80;98.90;;;;;;6100259;23;19924;-85
2022/08/27 15:46:50;;;;;;;;;;;;;;;;;;;;;
2022/08/27 16:09:37;;;;;;;;;;;20.60;98.90;;;;;;6124741;23;19955;-85
2022/08/27 16:12:11;;;;;;;;;;;20.70;97.50;;;;;;6076751;23;20000;-87
2022/08/27 16:15:03;;;;;;;;;;;20.80;97.80;;;;;;6141671;23;19922;-85
2022/08/27 16:17:47;;;;;;;;;;;20.80;97.90;;;;;;6220067;23;19915;-85
2022/08/27 16:20:15;;;;;;;;;;;20.70;98.10;;;;;;6192614;23;19915;-85
2022/08/27 16:23:06;;;;;;;;;;;20.60;98.00;;;;;;6246968;23;19918;-85
2022/08/27 16:25:39;;;;;;;;;;;20.50;98.30;;;;;;6221528;22;19945;-86
2022/08/27 16:28:17;;;;;;;;;;;20.30;98.70;;;;;;6250143;22;19938;-85
2022/08/27 16:30:53;;;;;;;;;;;20.10;98.60;;;;;;6276626;22;19918;-85
2022/08/27 16:33:41;;;;;;;;;;;20.20;98.70;;;;;;6252387;22;19915;-85
2022/08/27 16:36:23;;;;;;;;;;;20.10;99.00;;;;;;6250354;22;19917;-86
2022/08/27 16:39:05;;;;;;;;;;;20.00;99.00;;;;;;6277043;22;19915;-85
2022/08/27 16:41:38;;;;;;;;;;;19.90;99.30;;;;;;6249708;22;19962;-85
2022/08/27 16:44:12;;;;;;;;;;;19.90;99.60;;;;;;6271682;22;19915;-86
2022/08/27 16:46:50;;;;;;;;;;;19.90;99.80;;;;;;6249078;22;19922;-85
2022/08/27 16:52:56;;;;;;;;;;;19.70;99.70;;;;;;6157607;23;19920;-86
2022/08/27 16:55:51;;;;;;;;;;;19.70;99.90;;;;;;6158235;23;19916;-85
2022/08/27 16:58:26;;;;;;;;;;;19.30;99.50;;;;;;6157914;23;19916;-85
2022/08/27 17:00:57;;;;;;;;;;;19.70;99.30;;;;;;6133513;23;20052;-86
2022/08/27 17:03:45;;;;;;;;;;;19.80;99.20;;;;;;6160769;23;19974;-86
2022/08/27 17:06:37;;;;;;;;;;;19.70;99.30;;;;;;6183449;23;20275;-85
2022/08/27 17:09:07;;;;;;;;;;;19.80;99.30;;;;;;6182812;23;19916;-85
2022/08/27 17:11:42;;;;;;;;;;;19.70;99.50;;;;;;6159068;23;19916;-86
2022/08/27 17:14:15;;;;;;;;;;;19.80;99.30;;;;;;6157889;23;19916;-85
2022/08/27 17:16:49;;;;;;;;;;;19.60;99.60;;;;;;6182889;23;19923;-85
2022/08/27 17:19:24;;;;;;;;;;;19.60;99.50;;;;;;6134196;23;19917;-85
2022/08/27 17:22:08;;;;;;;;;;;19.40;99.40;;;;;;6158259;23;20351;-85
2022/08/27 17:25:09;;;;;;;;;;;;;;;;;;;;;
2022/08/27 17:27:54;;;;;;;;;;;19.30;99.80;;;;;;6209727;23;19962;-85
2022/08/27 17:34:26;;;;;;;;;;;19.10;99.90;;;;;;6244634;23;19974;-86
2022/08/27 17:36:58;;;;;;;;;;;19.00;99.90;;;;;;6218742;23;19990;-85
2022/08/27 17:39:48;;;;;;;;;;;19.10;99.90;;;;;;6242983;23;19984;-85
2022/08/27 17:42:30;;;;;;;;;;;19.20;99.90;;;;;;6243009;23;19916;-85
2022/08/27 17:58:45;;;;;;;;;;;19.10;99.90;;;;;;6244217;22;20322;-85
2022/08/27 18:01:30;;;;;;;;;;;18.90;99.90;;;;;;6242201;23;19915;-86
2022/08/27 18:04:01;;;;;;;;;;;18.90;99.90;;;;;;6243298;23;20341;-85
2022/08/27 18:06:39;;;;;;;;;;;18.90;99.90;;;;;;6219339;23;20269;-87
2022/08/27 18:09:08;;;;;;;;;;;18.90;99.90;;;;;;6219421;23;19915;-85
2022/08/27 18:11:49;;;;;;;;;;;;;;;;;;;;;
2022/08/27 18:14:28;;;;;;;;;;;18.70;99.90;;;;;;6243019;23;19946;-85
2022/08/27 18:17:16;;;;;;;;;;;18.70;99.90;;;;;;6244886;22;19916;-85
2022/08/27 18:20:02;;;;;;;;;;;18.70;99.90;;;;;;6242920;23;19938;-85
2022/08/27 18:22:39;;;;;;;;;;;18.50;99.90;;;;;;6242530;23;19919;-85
2022/08/27 18:25:31;;;;;;;;;;;18.50;99.90;;;;;;6242873;23;20608;-85
2022/08/27 18:28:11;;;;;;;;;;;18.50;99.90;;;;;;5552676;22;16013748;-86
2022/08/27 18:30:58;;;;;;;;;;;18.30;99.90;;;;;;6219416;23;19923;-85
2022/08/27 18:33:42;;;;;;;;;;;18.40;99.90;;;;;;6242829;23;19941;-85
2022/08/27 18:36:22;;;;;;;;;;;;;;;;;;;;;
2022/08/27 18:39:10;;;;;;;;;;;18.10;99.90;;;;;;6217381;23;19916;-85
2022/08/27 18:41:47;;;;;;;;;;;17.90;99.90;;;;;;6242621;23;19962;-86
2022/08/27 18:44:34;;;;;;;;;;;;;;;;;;;;;
2022/08/27 18:47:21;;;;;;;;;;;;;;;;;;;;;
2022/08/27 18:50:29;;;;;;;;;;;;;;;;;;;;;
2022/08/27 19:00:25;;;;;;;;;;;17.50;99.90;;;;;;6243013;23;20417;-85
2022/08/27 19:03:14;;;;;;;;;;;17.40;99.90;;;;;;6220593;23;19919;-85
2022/08/27 19:06:11;;;;;;;;;;;;;;;;;;;;;
2022/08/27 19:09:08;;;;;;;;;;;17.50;99.90;;;;;;6152678;23;19917;-86
2022/08/27 19:12:12;;;;;;;;;;;;;;;;;;;;;
2022/08/27 19:15:16;;;;;;;;;;;;;;;;;;;;;
2022/08/27 19:17:55;;;;;;;;;;;17.00;99.90;;;;;;6128893;23;19923;-85
2022/08/27 19:24:21;;;;;;;;;;;16.90;99.90;;;;;;6154676;23;20054;-86
2022/08/27 19:27:27;;;;;;;;;;;;;;;;;;;;;
2022/08/27 19:30:18;;;;;;;;;;;16.80;99.90;;;;;;6154999;23;19980;-85
2022/08/27 19:32:51;;;;;;;;;;;16.70;99.90;;;;;;6110627;23;19939;-84
2022/08/27 19:35:26;;;;;;;;;;;16.60;99.90;;;;;;6104852;23;19921;-85
2022/08/27 19:38:00;;;;;;;;;;;16.40;99.90;;;;;;6106121;23;19983;-86
2022/08/27 19:40:35;;;;;;;;;;;16.30;99.90;;;;;;6108054;23;19920;-86
2022/08/27 19:53:34;;;;;;;;;;;16.40;99.90;;;;;;6277722;22;19910;-86
2022/08/27 19:56:33;;;;;;;;;;;16.40;99.90;;;;;;6278504;22;20368;-86
2022/08/27 19:59:18;;;;;;;;;;;16.30;99.90;;;;;;6278683;22;19915;-86
2022/08/27 20:02:18;;;;;;;;;;;16.40;99.90;;;;;;6277885;22;19915;-86
2022/08/27 20:05:05;;;;;;;;;;;;;;;;;;;;;
2022/08/27 20:08:07;;;;;;;;;;;;;;;;;;;;;
2022/08/27 20:10:55;;;;;;;;;;;16.30;99.90;;;;;;6277159;22;20330;-86
2022/08/27 20:20:25;;;;;;;;;;;16.20;99.90;;;;;;6277633;22;20288;-86
2022/08/27 20:23:10;;;;;;;;;;;16.00;99.90;;;;;;6277266;22;19957;-86
2022/08/27 20:26:18;;;;;;;;;;;16.10;99.90;;;;;;6262298;22;20349;-89
2022/08/27 20:29:31;;;;;;;;;;;;;;;;;;;;;
2022/08/27 20:32:05;;;;;;;;;;;16.10;99.90;;;;;;6275280;22;19993;-83
2022/08/27 20:34:49;;;;;;;;;;;16.10;99.90;;;;;;6249366;22;19915;-85
2022/08/27 20:37:23;;;;;;;;;;;16.00;99.90;;;;;;6250501;22;19933;-85
2022/08/27 20:40:31;;;;;;;;;;;;;;;;;;;;;
2022/08/27 20:43:07;;;;;;;;;;;16.00;99.90;;;;;;6055034;23;19940;-86
2022/08/27 20:45:37;;;;;;;;;;;16.00;99.90;;;;;;6099832;23;19971;-87
2022/08/27 20:48:37;;;;;;;;;;;16.00;99.90;;;;;;6170441;22;20315;-85
2022/08/27 20:54:25;;;;;;;;;;;15.90;99.90;;;;;;6280415;22;20222;-84
2022/08/27 20:57:02;;;;;;;;;;;16.00;99.90;;;;;;6279052;22;19917;-88
2022/08/27 21:06:13;;;;;;;;;;;16.00;99.90;;;;;;6308070;22;20245;-86
2022/08/27 21:08:48;;;;;;;;;;;16.00;99.90;;;;;;6280935;22;19936;-89
2022/08/27 21:11:17;;;;;;;;;;;16.00;99.90;;;;;;6256873;22;19933;-87
2022/08/27 21:13:43;;;;;;;;;;;15.70;99.90;;;;;;6281747;22;19915;-87
2022/08/27 21:19:32;;;;;;;;;;;15.90;99.90;;;;;;6308700;22;19933;-86
2022/08/27 21:22:02;;;;;;;;;;;16.30;99.90;;;;;;6307606;22;19915;-86
2022/08/27 21:24:51;;;;;;;;;;;15.90;99.90;;;;;;6308442;22;19967;-85
2022/08/27 21:27:26;;;;;;;;;;;15.90;99.90;;;;;;6258605;22;19914;-83
2022/08/27 21:29:57;;;;;;;;;;;15.80;99.90;;;;;;6308675;22;19915;-84
2022/08/27 21:32:37;;;;;;;;;;;15.80;99.90;;;;;;6280424;22;19918;-84
2022/08/27 21:35:27;;;;;;;;;;;15.90;99.90;;;;;;6307913;22;19921;-84
2022/08/27 21:38:14;;;;;;;;;;;15.70;99.90;;;;;;6308000;22;20341;-85
2022/08/27 21:41:05;;;;;;;;;;;15.70;99.90;;;;;;6307802;22;19915;-85
2022/08/27 21:44:17;;;;;;;;;;;;;;;;;;;;;
2022/08/27 21:50:35;;;;;;;;;;;;;;;;;;;;;
2022/08/27 21:53:26;;;;;;;;;;;15.60;99.90;;;;;;6065940;23;19942;-85
2022/08/27 21:56:12;;;;;;;;;;;15.50;99.90;;;;;;6066210;23;19917;-85
2022/08/27 21:58:41;;;;;;;;;;;15.50;99.90;;;;;;6041777;23;19955;-84
2022/08/27 22:01:14;;;;;;;;;;;15.40;99.90;;;;;;6040822;23;19917;-87
2022/08/27 22:03:54;;;;;;;;;;;15.40;99.90;;;;;;6041508;23;19921;-85
2022/08/27 22:06:39;;;;;;;;;;;15.40;99.90;;;;;;6065147;23;20351;-84
2022/08/27 22:12:31;;;;;;;;;;;15.30;99.90;;;;;;6064627;23;19940;-86
2022/08/27 22:15:19;;;;;;;;;;;15.70;99.90;;;;;;6065341;23;19956;-85
2022/08/27 22:17:52;;;;;;;;;;;15.20;99.90;;;;;;6065100;23;19917;-85
2022/08/27 22:20:21;;;;;;;;;;;15.20;99.90;;;;;;6041062;23;20028;-84